Terminal Aerodrome Forecast
Issued by NWS

Home | Current Version | Previous Version | Text Only | Print | Product List | Glossary On
Versions: 1 2 3 4 5 6 7 8 9 10 11 12 13 14 15
000
FTPA31 PHFO 241741
TAFHOG
TAF
PHOG 241741Z 2418/2518 15005KT P6SM FEW040 BKN100
     FM242200 08012G20KT P6SM VCSH SCT040 BKN100
     FM250000 08018G28KT P6SM VCSH SCT040 BKN100
     FM250400 08012G20KT P6SM VCSH SCT040 BKN100
     FM250800 07010KT P6SM VCSH FEW040 BKN100=

USA.gov is the U.S. government's official web portal to all federal, state and local government web resources and services.